sensor_id;sensor_type;location;lat;lon;timestamp;P1;durP1;ratioP1;P2;durP2;ratioP2
82990;SDS011;72806;50.832;4.864;2024-03-23T00:54:44;7.22;;;4.28;;
82990;SDS011;72806;50.832;4.864;2024-03-23T00:57:11;5.40;;;3.28;;
82990;SDS011;72806;50.832;4.864;2024-03-23T00:59:38;13.88;;;3.90;;
82990;SDS011;72806;50.832;4.864;2024-03-23T01:02:04;7.63;;;3.05;;
82990;SDS011;72806;50.832;4.864;2024-03-23T01:04:31;12.77;;;4.00;;
82990;SDS011;72806;50.832;4.864;2024-03-23T01:06:57;10.38;;;2.63;;
82990;SDS011;72806;50.832;4.864;2024-03-23T01:09:25;8.48;;;2.95;;
82990;SDS011;72806;50.832;4.864;2024-03-23T01:11:52;10.15;;;3.72;;
82990;SDS011;72806;50.832;4.864;2024-03-23T01:14:19;6.22;;;2.92;;
82990;SDS011;72806;50.832;4.864;2024-03-23T01:16:45;13.77;;;4.57;;
82990;SDS011;72806;50.832;4.864;2024-03-23T01:19:13;9.68;;;3.28;;
82990;SDS011;72806;50.832;4.864;2024-03-23T01:21:39;9.10;;;3.20;;
82990;SDS011;72806;50.832;4.864;2024-03-23T01:24:08;8.15;;;3.33;;
82990;SDS011;72806;50.832;4.864;2024-03-23T01:26:35;8.05;;;3.90;;
82990;SDS011;72806;50.832;4.864;2024-03-23T01:29:04;8.55;;;3.08;;
82990;SDS011;72806;50.832;4.864;2024-03-23T01:31:30;8.18;;;3.08;;
82990;SDS011;72806;50.832;4.864;2024-03-23T01:33:58;10.02;;;3.55;;
82990;SDS011;72806;50.832;4.864;2024-03-23T01:36:24;11.55;;;4.47;;
82990;SDS011;72806;50.832;4.864;2024-03-23T01:38:51;9.18;;;3.92;;
82990;SDS011;72806;50.832;4.864;2024-03-23T01:41:17;10.88;;;3.55;;
82990;SDS011;72806;50.832;4.864;2024-03-23T01:43:45;12.63;;;4.85;;
82990;SDS011;72806;50.832;4.864;2024-03-23T01:46:12;8.85;;;3.70;;
82990;SDS011;72806;50.832;4.864;2024-03-23T01:48:40;8.63;;;3.97;;
82990;SDS011;72806;50.832;4.864;2024-03-23T01:51:06;13.02;;;3.75;;
82990;SDS011;72806;50.832;4.864;2024-03-23T01:53:34;9.48;;;3.65;;
82990;SDS011;72806;50.832;4.864;2024-03-23T01:56:00;13.43;;;3.95;;
82990;SDS011;72806;50.832;4.864;2024-03-23T01:58:29;9.43;;;3.50;;
82990;SDS011;72806;50.832;4.864;2024-03-23T02:00:57;15.25;;;4.07;;
82990;SDS011;72806;50.832;4.864;2024-03-23T02:03:26;7.57;;;3.80;;
82990;SDS011;72806;50.832;4.864;2024-03-23T02:05:52;8.10;;;3.75;;
82990;SDS011;72806;50.832;4.864;2024-03-23T02:08:20;7.70;;;3.28;;
82990;SDS011;72806;50.832;4.864;2024-03-23T02:10:46;8.68;;;4.22;;
82990;SDS011;72806;50.832;4.864;2024-03-23T02:13:14;10.35;;;3.83;;
82990;SDS011;72806;50.832;4.864;2024-03-23T02:15:41;6.82;;;3.97;;
82990;SDS011;72806;50.832;4.864;2024-03-23T02:18:08;9.27;;;4.13;;
82990;SDS011;72806;50.832;4.864;2024-03-23T02:20:35;13.68;;;4.57;;
82990;SDS011;72806;50.832;4.864;2024-03-23T02:23:04;16.13;;;5.28;;
82990;SDS011;72806;50.832;4.864;2024-03-23T02:25:31;11.45;;;4.47;;
82990;SDS011;72806;50.832;4.864;2024-03-23T02:27:59;16.52;;;6.70;;
82990;SDS011;72806;50.832;4.864;2024-03-23T02:30:25;12.40;;;4.88;;
82990;SDS011;72806;50.832;4.864;2024-03-23T02:32:52;10.18;;;4.82;;
82990;SDS011;72806;50.832;4.864;2024-03-23T02:35:19;14.90;;;5.38;;
82990;SDS011;72806;50.832;4.864;2024-03-23T02:37:46;10.50;;;4.72;;
82990;SDS011;72806;50.832;4.864;2024-03-23T02:40:14;10.23;;;4.28;;
82990;SDS011;72806;50.832;4.864;2024-03-23T02:42:42;8.48;;;3.80;;
82990;SDS011;72806;50.832;4.864;2024-03-23T02:45:08;12.10;;;4.90;;
82990;SDS011;72806;50.832;4.864;2024-03-23T02:47:35;9.00;;;4.28;;
82990;SDS011;72806;50.832;4.864;2024-03-23T02:50:02;9.38;;;4.00;;
82990;SDS011;72806;50.832;4.864;2024-03-23T02:52:29;15.85;;;4.88;;
82990;SDS011;72806;50.832;4.864;2024-03-23T02:54:56;10.70;;;4.65;;
82990;SDS011;72806;50.832;4.864;2024-03-23T02:57:24;7.93;;;4.47;;
82990;SDS011;72806;50.832;4.864;2024-03-23T02:59:50;13.07;;;4.25;;
82990;SDS011;72806;50.832;4.864;2024-03-23T03:02:18;12.82;;;4.90;;
82990;SDS011;72806;50.832;4.864;2024-03-23T03:04:44;12.38;;;5.50;;
82990;SDS011;72806;50.832;4.864;2024-03-23T03:07:11;11.55;;;4.38;;
82990;SDS011;72806;50.832;4.864;2024-03-23T03:09:37;9.05;;;5.03;;
82990;SDS011;72806;50.832;4.864;2024-03-23T03:12:05;8.30;;;3.83;;
82990;SDS011;72806;50.832;4.864;2024-03-23T03:14:33;12.40;;;5.03;;
82990;SDS011;72806;50.832;4.864;2024-03-23T03:17:00;9.07;;;5.22;;
82990;SDS011;72806;50.832;4.864;2024-03-23T03:19:26;12.80;;;5.00;;
82990;SDS011;72806;50.832;4.864;2024-03-23T03:21:53;11.10;;;4.65;;
82990;SDS011;72806;50.832;4.864;2024-03-23T03:24:20;13.32;;;5.15;;
82990;SDS011;72806;50.832;4.864;2024-03-23T03:26:47;11.05;;;5.28;;
82990;SDS011;72806;50.832;4.864;2024-03-23T03:29:14;10.68;;;5.53;;
82990;SDS011;72806;50.832;4.864;2024-03-23T03:31:43;13.25;;;6.00;;
82990;SDS011;72806;50.832;4.864;2024-03-23T03:34:10;14.50;;;5.65;;
82990;SDS011;72806;50.832;4.864;2024-03-23T03:36:37;16.42;;;6.25;;
82990;SDS011;72806;50.832;4.864;2024-03-23T03:39:03;14.25;;;6.30;;
82990;SDS011;72806;50.832;4.864;2024-03-23T03:41:31;16.75;;;6.30;;
82990;SDS011;72806;50.832;4.864;2024-03-23T03:43:57;16.00;;;6.22;;
82990;SDS011;72806;50.832;4.864;2024-03-23T03:46:27;13.77;;;6.85;;
82990;SDS011;72806;50.832;4.864;2024-03-23T03:48:55;14.30;;;6.68;;
82990;SDS011;72806;50.832;4.864;2024-03-23T03:51:22;12.23;;;6.25;;
82990;SDS011;72806;50.832;4.864;2024-03-23T03:53:48;19.30;;;6.25;;
82990;SDS011;72806;50.832;4.864;2024-03-23T03:56:16;22.38;;;6.65;;
82990;SDS011;72806;50.832;4.864;2024-03-23T03:58:42;20.02;;;6.93;;
82990;SDS011;72806;50.832;4.864;2024-03-23T04:01:09;17.25;;;6.30;;
82990;SDS011;72806;50.832;4.864;2024-03-23T04:03:35;15.35;;;6.93;;
82990;SDS011;72806;50.832;4.864;2024-03-23T04:06:06;11.95;;;5.93;;
82990;SDS011;72806;50.832;4.864;2024-03-23T04:08:32;18.30;;;6.03;;
82990;SDS011;72806;50.832;4.864;2024-03-23T04:10:59;14.70;;;6.68;;
82990;SDS011;72806;50.832;4.864;2024-03-23T04:13:26;15.98;;;7.05;;
82990;SDS011;72806;50.832;4.864;2024-03-23T04:15:53;12.65;;;5.75;;
82990;SDS011;72806;50.832;4.864;2024-03-23T04:18:20;19.10;;;6.95;;
82990;SDS011;72806;50.832;4.864;2024-03-23T04:20:48;18.33;;;7.28;;
82990;SDS011;72806;50.832;4.864;2024-03-23T04:23:15;14.75;;;5.93;;
82990;SDS011;72806;50.832;4.864;2024-03-23T04:25:42;24.50;;;8.75;;
82990;SDS011;72806;50.832;4.864;2024-03-23T04:28:09;18.50;;;8.63;;
82990;SDS011;72806;50.832;4.864;2024-03-23T04:30:36;19.85;;;7.88;;
82990;SDS011;72806;50.832;4.864;2024-03-23T04:33:03;24.63;;;9.13;;
82990;SDS011;72806;50.832;4.864;2024-03-23T04:35:30;25.02;;;8.65;;
82990;SDS011;72806;50.832;4.864;2024-03-23T04:37:57;19.95;;;7.93;;
82990;SDS011;72806;50.832;4.864;2024-03-23T04:40:26;28.88;;;9.23;;
82990;SDS011;72806;50.832;4.864;2024-03-23T04:42:53;20.98;;;8.35;;
82990;SDS011;72806;50.832;4.864;2024-03-23T04:45:19;19.67;;;8.95;;
82990;SDS011;72806;50.832;4.864;2024-03-23T04:47:46;22.80;;;8.20;;
82990;SDS011;72806;50.832;4.864;2024-03-23T04:50:12;18.90;;;8.55;;
82990;SDS011;72806;50.832;4.864;2024-03-23T04:52:39;15.93;;;8.02;;
82990;SDS011;72806;50.832;4.864;2024-03-23T04:55:06;17.77;;;7.53;;
82990;SDS011;72806;50.832;4.864;2024-03-23T04:57:34;13.70;;;7.07;;
82990;SDS011;72806;50.832;4.864;2024-03-23T05:00:01;19.02;;;7.85;;
82990;SDS011;72806;50.832;4.864;2024-03-23T05:02:29;23.17;;;7.88;;
82990;SDS011;72806;50.832;4.864;2024-03-23T05:04:56;16.90;;;6.78;;
82990;SDS011;72806;50.832;4.864;2024-03-23T05:07:22;19.15;;;7.60;;
82990;SDS011;72806;50.832;4.864;2024-03-23T05:09:49;19.98;;;7.82;;
82990;SDS011;72806;50.832;4.864;2024-03-23T05:12:15;21.10;;;7.63;;
82990;SDS011;72806;50.832;4.864;2024-03-23T05:14:43;14.27;;;7.72;;
82990;SDS011;72806;50.832;4.864;2024-03-23T05:17:09;18.42;;;7.53;;
82990;SDS011;72806;50.832;4.864;2024-03-23T05:19:36;14.25;;;7.10;;
82990;SDS011;72806;50.832;4.864;2024-03-23T05:22:02;20.55;;;7.85;;
82990;SDS011;72806;50.832;4.864;2024-03-23T05:24:29;17.00;;;7.13;;
82990;SDS011;72806;50.832;4.864;2024-03-23T05:26:55;17.77;;;7.57;;
82990;SDS011;72806;50.832;4.864;2024-03-23T05:29:24;19.92;;;7.45;;
82990;SDS011;72806;50.832;4.864;2024-03-23T05:31:52;17.02;;;8.02;;
82990;SDS011;72806;50.832;4.864;2024-03-23T05:34:21;11.18;;;6.95;;
82990;SDS011;72806;50.832;4.864;2024-03-23T05:36:47;14.45;;;6.68;;
82990;SDS011;72806;50.832;4.864;2024-03-23T05:39:14;20.25;;;7.30;;
82990;SDS011;72806;50.832;4.864;2024-03-23T05:41:41;15.80;;;6.85;;
82990;SDS011;72806;50.832;4.864;2024-03-23T05:44:08;16.67;;;7.47;;
82990;SDS011;72806;50.832;4.864;2024-03-23T05:46:35;18.50;;;8.50;;
82990;SDS011;72806;50.832;4.864;2024-03-23T05:49:04;18.65;;;8.05;;
82990;SDS011;72806;50.832;4.864;2024-03-23T05:51:30;18.67;;;7.60;;
82990;SDS011;72806;50.832;4.864;2024-03-23T05:53:57;16.75;;;7.88;;
82990;SDS011;72806;50.832;4.864;2024-03-23T05:56:23;16.63;;;7.90;;
82990;SDS011;72806;50.832;4.864;2024-03-23T05:58:51;22.20;;;8.80;;
82990;SDS011;72806;50.832;4.864;2024-03-23T06:01:16;17.42;;;7.53;;
82990;SDS011;72806;50.832;4.864;2024-03-23T06:03:43;17.35;;;7.68;;
82990;SDS011;72806;50.832;4.864;2024-03-23T06:06:11;20.95;;;7.70;;
82990;SDS011;72806;50.832;4.864;2024-03-23T06:08:38;17.52;;;7.50;;
82990;SDS011;72806;50.832;4.864;2024-03-23T06:11:04;16.48;;;7.35;;
82990;SDS011;72806;50.832;4.864;2024-03-23T06:13:31;16.85;;;7.55;;
82990;SDS011;72806;50.832;4.864;2024-03-23T06:15:57;12.95;;;7.03;;
82990;SDS011;72806;50.832;4.864;2024-03-23T06:18:24;16.60;;;7.45;;
82990;SDS011;72806;50.832;4.864;2024-03-23T06:20:50;17.00;;;7.40;;
82990;SDS011;72806;50.832;4.864;2024-03-23T06:23:18;14.70;;;7.47;;
82990;SDS011;72806;50.832;4.864;2024-03-23T06:25:45;17.15;;;6.78;;
82990;SDS011;72806;50.832;4.864;2024-03-23T06:28:12;14.63;;;6.50;;
82990;SDS011;72806;50.832;4.864;2024-03-23T06:30:39;17.00;;;7.18;;
82990;SDS011;72806;50.832;4.864;2024-03-23T06:33:06;13.60;;;6.45;;
82990;SDS011;72806;50.832;4.864;2024-03-23T06:35:33;14.45;;;5.78;;
82990;SDS011;72806;50.832;4.864;2024-03-23T06:37:58;13.27;;;5.60;;
82990;SDS011;72806;50.832;4.864;2024-03-23T06:40:27;11.65;;;5.20;;
82990;SDS011;72806;50.832;4.864;2024-03-23T06:42:53;18.77;;;5.70;;
82990;SDS011;72806;50.832;4.864;2024-03-23T06:45:19;13.48;;;5.20;;
82990;SDS011;72806;50.832;4.864;2024-03-23T06:47:48;9.00;;;4.72;;
82990;SDS011;72806;50.832;4.864;2024-03-23T06:50:15;13.40;;;5.07;;
82990;SDS011;72806;50.832;4.864;2024-03-23T06:52:41;11.60;;;4.75;;
82990;SDS011;72806;50.832;4.864;2024-03-23T06:55:08;12.50;;;4.43;;
82990;SDS011;72806;50.832;4.864;2024-03-23T06:57:35;11.38;;;4.53;;
82990;SDS011;72806;50.832;4.864;2024-03-23T07:00:02;18.08;;;4.68;;
82990;SDS011;72806;50.832;4.864;2024-03-23T07:02:30;7.70;;;4.35;;
82990;SDS011;72806;50.832;4.864;2024-03-23T07:04:56;10.38;;;4.53;;
82990;SDS011;72806;50.832;4.864;2024-03-23T07:07:22;10.52;;;3.92;;
82990;SDS011;72806;50.832;4.864;2024-03-23T07:09:50;14.80;;;3.75;;
82990;SDS011;72806;50.832;4.864;2024-03-23T07:12:16;10.32;;;3.28;;
82990;SDS011;72806;50.832;4.864;2024-03-23T07:14:44;11.07;;;3.75;;
82990;SDS011;72806;50.832;4.864;2024-03-23T07:17:10;7.18;;;3.47;;
82990;SDS011;72806;50.832;4.864;2024-03-23T07:19:37;8.23;;;3.35;;
82990;SDS011;72806;50.832;4.864;2024-03-23T07:22:03;12.48;;;3.55;;
82990;SDS011;72806;50.832;4.864;2024-03-23T07:24:30;11.00;;;3.38;;
82990;SDS011;72806;50.832;4.864;2024-03-23T07:26:57;6.03;;;2.28;;
82990;SDS011;72806;50.832;4.864;2024-03-23T07:29:25;5.13;;;2.47;;
82990;SDS011;72806;50.832;4.864;2024-03-23T07:31:53;11.00;;;2.47;;
82990;SDS011;72806;50.832;4.864;2024-03-23T07:34:20;9.45;;;2.22;;
82990;SDS011;72806;50.832;4.864;2024-03-23T07:36:46;10.02;;;3.22;;
82990;SDS011;72806;50.832;4.864;2024-03-23T07:39:13;7.63;;;2.30;;
82990;SDS011;72806;50.832;4.864;2024-03-23T07:41:39;11.27;;;2.88;;
82990;SDS011;72806;50.832;4.864;2024-03-23T07:44:07;5.70;;;2.45;;
82990;SDS011;72806;50.832;4.864;2024-03-23T07:46:33;10.23;;;3.67;;
82990;SDS011;72806;50.832;4.864;2024-03-23T07:49:01;4.10;;;2.35;;
82990;SDS011;72806;50.832;4.864;2024-03-23T07:51:30;6.22;;;3.00;;
82990;SDS011;72806;50.832;4.864;2024-03-23T07:53:57;5.10;;;2.42;;
82990;SDS011;72806;50.832;4.864;2024-03-23T07:56:24;6.35;;;2.10;;
82990;SDS011;72806;50.832;4.864;2024-03-23T07:58:51;6.43;;;2.60;;
82990;SDS011;72806;50.832;4.864;2024-03-23T08:01:17;7.43;;;2.80;;
82990;SDS011;72806;50.832;4.864;2024-03-23T08:03:45;3.75;;;2.10;;
82990;SDS011;72806;50.832;4.864;2024-03-23T08:06:13;5.30;;;2.45;;
82990;SDS011;72806;50.832;4.864;2024-03-23T08:08:41;4.97;;;2.95;;
82990;SDS011;72806;50.832;4.864;2024-03-23T08:11:07;4.68;;;2.45;;
82990;SDS011;72806;50.832;4.864;2024-03-23T08:13:35;4.25;;;2.47;;
82990;SDS011;72806;50.832;4.864;2024-03-23T08:16:02;7.20;;;3.38;;
82990;SDS011;72806;50.832;4.864;2024-03-23T08:18:30;4.63;;;2.50;;
82990;SDS011;72806;50.832;4.864;2024-03-23T08:20:56;11.18;;;3.28;;
82990;SDS011;72806;50.832;4.864;2024-03-23T08:23:25;8.82;;;2.83;;
82990;SDS011;72806;50.832;4.864;2024-03-23T08:25:51;7.88;;;2.40;;
82990;SDS011;72806;50.832;4.864;2024-03-23T08:28:19;6.38;;;2.75;;
82990;SDS011;72806;50.832;4.864;2024-03-23T08:30:45;5.50;;;2.40;;
82990;SDS011;72806;50.832;4.864;2024-03-23T08:33:12;6.65;;;2.35;;
82990;SDS011;72806;50.832;4.864;2024-03-23T08:35:38;7.38;;;2.25;;
82990;SDS011;72806;50.832;4.864;2024-03-23T08:38:05;10.15;;;3.25;;
82990;SDS011;72806;50.832;4.864;2024-03-23T08:40:33;9.57;;;2.58;;
82990;SDS011;72806;50.832;4.864;2024-03-23T08:43:00;8.45;;;2.28;;
82990;SDS011;72806;50.832;4.864;2024-03-23T08:45:26;5.72;;;2.10;;
82990;SDS011;72806;50.832;4.864;2024-03-23T08:47:54;8.13;;;2.10;;
82990;SDS011;72806;50.832;4.864;2024-03-23T08:50:20;3.92;;;2.10;;
82990;SDS011;72806;50.832;4.864;2024-03-23T08:52:48;9.05;;;1.95;;
82990;SDS011;72806;50.832;4.864;2024-03-23T08:55:16;11.20;;;2.47;;
82990;SDS011;72806;50.832;4.864;2024-03-23T08:57:45;11.35;;;2.80;;
82990;SDS011;72806;50.832;4.864;2024-03-23T09:00:11;5.80;;;2.42;;
82990;SDS011;72806;50.832;4.864;2024-03-23T09:02:39;7.95;;;3.35;;
82990;SDS011;72806;50.832;4.864;2024-03-23T09:05:06;7.63;;;2.70;;
82990;SDS011;72806;50.832;4.864;2024-03-23T09:07:33;7.18;;;3.05;;
82990;SDS011;72806;50.832;4.864;2024-03-23T09:10:00;8.63;;;2.28;;
82990;SDS011;72806;50.832;4.864;2024-03-23T09:12:27;7.82;;;2.70;;
82990;SDS011;72806;50.832;4.864;2024-03-23T09:14:54;7.05;;;2.45;;
82990;SDS011;72806;50.832;4.864;2024-03-23T09:17:21;10.32;;;2.22;;
82990;SDS011;72806;50.832;4.864;2024-03-23T09:19:48;7.32;;;2.42;;
82990;SDS011;72806;50.832;4.864;2024-03-23T09:22:15;7.28;;;2.80;;
82990;SDS011;72806;50.832;4.864;2024-03-23T09:24:41;9.23;;;2.63;;
82990;SDS011;72806;50.832;4.864;2024-03-23T09:27:08;6.90;;;3.00;;
82990;SDS011;72806;50.832;4.864;2024-03-23T09:29:34;5.75;;;3.10;;
82990;SDS011;72806;50.832;4.864;2024-03-23T09:32:03;6.45;;;2.53;;
82990;SDS011;72806;50.832;4.864;2024-03-23T09:34:30;4.97;;;2.40;;
82990;SDS011;72806;50.832;4.864;2024-03-23T09:36:57;12.15;;;3.67;;
82990;SDS011;72806;50.832;4.864;2024-03-23T09:39:23;8.13;;;3.53;;
82990;SDS011;72806;50.832;4.864;2024-03-23T09:41:50;8.00;;;3.08;;
82990;SDS011;72806;50.832;4.864;2024-03-23T09:44:16;9.27;;;3.10;;
82990;SDS011;72806;50.832;4.864;2024-03-23T09:46:43;8.40;;;3.10;;
82990;SDS011;72806;50.832;4.864;2024-03-23T09:49:11;4.88;;;2.85;;
82990;SDS011;72806;50.832;4.864;2024-03-23T09:51:38;9.68;;;3.53;;
82990;SDS011;72806;50.832;4.864;2024-03-23T09:54:05;7.03;;;2.33;;
82990;SDS011;72806;50.832;4.864;2024-03-23T09:56:32;6.15;;;3.00;;
82990;SDS011;72806;50.832;4.864;2024-03-23T09:59:01;7.03;;;2.95;;
82990;SDS011;72806;50.832;4.864;2024-03-23T10:01:29;10.63;;;3.17;;
82990;SDS011;72806;50.832;4.864;2024-03-23T10:03:55;10.13;;;3.08;;
82990;SDS011;72806;50.832;4.864;2024-03-23T10:06:24;7.13;;;3.40;;
82990;SDS011;72806;50.832;4.864;2024-03-23T10:08:51;7.45;;;3.58;;
82990;SDS011;72806;50.832;4.864;2024-03-23T10:11:19;7.88;;;2.80;;
82990;SDS011;72806;50.832;4.864;2024-03-23T10:13:46;6.40;;;2.90;;
82990;SDS011;72806;50.832;4.864;2024-03-23T10:16:20;5.78;;;3.30;;
82990;SDS011;72806;50.832;4.864;2024-03-23T10:18:47;7.78;;;3.47;;
82990;SDS011;72806;50.832;4.864;2024-03-23T10:21:14;3.72;;;2.60;;
82990;SDS011;72806;50.832;4.864;2024-03-23T10:23:42;6.45;;;2.92;;
82990;SDS011;72806;50.832;4.864;2024-03-23T10:26:16;4.55;;;2.40;;
82990;SDS011;72806;50.832;4.864;2024-03-23T10:28:55;5.03;;;2.42;;
82990;SDS011;72806;50.832;4.864;2024-03-23T10:31:26;5.68;;;2.97;;
82990;SDS011;72806;50.832;4.864;2024-03-23T10:33:53;4.93;;;2.53;;
82990;SDS011;72806;50.832;4.864;2024-03-23T10:36:20;7.68;;;2.78;;
82990;SDS011;72806;50.832;4.864;2024-03-23T10:38:49;3.85;;;2.25;;
82990;SDS011;72806;50.832;4.864;2024-03-23T10:41:16;5.13;;;3.30;;
82990;SDS011;72806;50.832;4.864;2024-03-23T10:43:43;3.47;;;2.28;;
82990;SDS011;72806;50.832;4.864;2024-03-23T10:46:12;7.43;;;2.78;;
82990;SDS011;72806;50.832;4.864;2024-03-23T10:48:38;5.53;;;2.47;;
82990;SDS011;72806;50.832;4.864;2024-03-23T10:53:32;7.22;;;3.00;;
82990;SDS011;72806;50.832;4.864;2024-03-23T10:56:01;5.43;;;2.85;;
82990;SDS011;72806;50.832;4.864;2024-03-23T10:58:28;7.03;;;3.80;;
82990;SDS011;72806;50.832;4.864;2024-03-23T11:00:58;7.28;;;3.22;;
82990;SDS011;72806;50.832;4.864;2024-03-23T11:03:31;9.18;;;2.75;;
82990;SDS011;72806;50.832;4.864;2024-03-23T11:05:58;3.53;;;2.55;;
82990;SDS011;72806;50.832;4.864;2024-03-23T11:08:31;7.75;;;2.60;;
82990;SDS011;72806;50.832;4.864;2024-03-23T11:11:13;6.35;;;2.97;;
82990;SDS011;72806;50.832;4.864;2024-03-23T11:13:39;3.90;;;2.38;;
82990;SDS011;72806;50.832;4.864;2024-03-23T11:16:12;5.45;;;2.65;;
82990;SDS011;72806;50.832;4.864;2024-03-23T11:18:39;8.00;;;2.13;;
82990;SDS011;72806;50.832;4.864;2024-03-23T11:21:07;7.88;;;2.35;;
82990;SDS011;72806;50.832;4.864;2024-03-23T11:23:33;5.28;;;2.28;;
82990;SDS011;72806;50.832;4.864;2024-03-23T11:26:00;1.98;;;1.58;;
82990;SDS011;72806;50.832;4.864;2024-03-23T11:28:28;6.88;;;2.38;;
82990;SDS011;72806;50.832;4.864;2024-03-23T11:30:55;4.63;;;1.90;;
82990;SDS011;72806;50.832;4.864;2024-03-23T11:33:21;6.50;;;2.85;;
82990;SDS011;72806;50.832;4.864;2024-03-23T11:35:49;5.38;;;2.55;;
82990;SDS011;72806;50.832;4.864;2024-03-23T11:38:17;2.85;;;1.90;;
82990;SDS011;72806;50.832;4.864;2024-03-23T11:40:44;5.00;;;2.60;;
82990;SDS011;72806;50.832;4.864;2024-03-23T11:43:12;6.05;;;2.28;;
82990;SDS011;72806;50.832;4.864;2024-03-23T11:45:42;3.00;;;1.92;;
82990;SDS011;72806;50.832;4.864;2024-03-23T11:48:09;7.50;;;4.50;;
82990;SDS011;72806;50.832;4.864;2024-03-23T11:50:38;3.22;;;2.28;;
82990;SDS011;72806;50.832;4.864;2024-03-23T11:53:15;4.55;;;2.20;;
82990;SDS011;72806;50.832;4.864;2024-03-23T11:55:46;5.93;;;2.28;;
82990;SDS011;72806;50.832;4.864;2024-03-23T11:58:13;6.30;;;2.05;;
82990;SDS011;72806;50.832;4.864;2024-03-23T12:00:42;7.35;;;2.10;;
82990;SDS011;72806;50.832;4.864;2024-03-23T12:03:08;3.90;;;1.92;;
82990;SDS011;72806;50.832;4.864;2024-03-23T12:05:36;3.95;;;2.15;;
82990;SDS011;72806;50.832;4.864;2024-03-23T12:08:16;7.03;;;4.40;;
82990;SDS011;72806;50.832;4.864;2024-03-23T12:10:44;4.63;;;2.05;;
82990;SDS011;72806;50.832;4.864;2024-03-23T12:13:11;3.15;;;1.50;;
82990;SDS011;72806;50.832;4.864;2024-03-23T12:15:38;5.28;;;2.10;;
82990;SDS011;72806;50.832;4.864;2024-03-23T12:18:08;5.18;;;3.10;;
82990;SDS011;72806;50.832;4.864;2024-03-23T12:20:36;5.22;;;2.17;;
82990;SDS011;72806;50.832;4.864;2024-03-23T12:23:06;6.80;;;2.42;;
82990;SDS011;72806;50.832;4.864;2024-03-23T12:25:34;4.40;;;2.55;;
82990;SDS011;72806;50.832;4.864;2024-03-23T12:28:00;5.18;;;2.83;;
82990;SDS011;72806;50.832;4.864;2024-03-23T12:30:27;3.88;;;1.80;;
82990;SDS011;72806;50.832;4.864;2024-03-23T12:32:53;5.93;;;2.50;;
82990;SDS011;72806;50.832;4.864;2024-03-23T12:35:23;3.92;;;1.85;;
82990;SDS011;72806;50.832;4.864;2024-03-23T12:37:49;3.33;;;2.28;;
82990;SDS011;72806;50.832;4.864;2024-03-23T12:40:16;6.75;;;2.50;;
82990;SDS011;72806;50.832;4.864;2024-03-23T12:42:42;6.90;;;2.55;;
82990;SDS011;72806;50.832;4.864;2024-03-23T12:45:10;5.57;;;2.17;;
82990;SDS011;72806;50.832;4.864;2024-03-23T12:47:36;5.85;;;2.38;;
82990;SDS011;72806;50.832;4.864;2024-03-23T12:50:03;10.68;;;4.05;;
82990;SDS011;72806;50.832;4.864;2024-03-23T12:52:32;7.45;;;2.35;;
82990;SDS011;72806;50.832;4.864;2024-03-23T12:54:59;11.45;;;3.20;;
82990;SDS011;72806;50.832;4.864;2024-03-23T12:57:25;9.60;;;2.65;;
82990;SDS011;72806;50.832;4.864;2024-03-23T12:59:53;7.47;;;2.63;;
82990;SDS011;72806;50.832;4.864;2024-03-23T13:02:19;7.18;;;1.67;;
82990;SDS011;72806;50.832;4.864;2024-03-23T13:04:46;7.10;;;2.45;;
82990;SDS011;72806;50.832;4.864;2024-03-23T13:07:13;4.93;;;1.92;;
82990;SDS011;72806;50.832;4.864;2024-03-23T13:09:41;5.07;;;2.08;;
82990;SDS011;72806;50.832;4.864;2024-03-23T13:12:08;9.05;;;2.78;;
82990;SDS011;72806;50.832;4.864;2024-03-23T13:14:35;5.10;;;2.25;;
82990;SDS011;72806;50.832;4.864;2024-03-23T13:17:01;7.32;;;3.25;;
82990;SDS011;72806;50.832;4.864;2024-03-23T13:19:29;6.88;;;2.85;;
82990;SDS011;72806;50.832;4.864;2024-03-23T13:21:56;9.30;;;2.88;;
82990;SDS011;72806;50.832;4.864;2024-03-23T13:24:23;4.57;;;2.17;;
82990;SDS011;72806;50.832;4.864;2024-03-23T13:26:51;8.50;;;2.75;;
82990;SDS011;72806;50.832;4.864;2024-03-23T13:29:19;12.65;;;2.60;;
82990;SDS011;72806;50.832;4.864;2024-03-23T13:31:45;5.70;;;2.33;;
82990;SDS011;72806;50.832;4.864;2024-03-23T13:34:13;4.63;;;2.10;;
82990;SDS011;72806;50.832;4.864;2024-03-23T13:36:40;4.93;;;1.92;;
82990;SDS011;72806;50.832;4.864;2024-03-23T13:39:08;6.20;;;2.92;;
82990;SDS011;72806;50.832;4.864;2024-03-23T13:41:36;6.18;;;2.60;;
82990;SDS011;72806;50.832;4.864;2024-03-23T13:44:05;8.48;;;2.65;;
82990;SDS011;72806;50.832;4.864;2024-03-23T13:46:31;6.00;;;2.92;;
82990;SDS011;72806;50.832;4.864;2024-03-23T13:48:58;4.38;;;1.95;;
82990;SDS011;72806;50.832;4.864;2024-03-23T13:51:25;3.30;;;1.77;;
82990;SDS011;72806;50.832;4.864;2024-03-23T13:53:53;4.68;;;2.38;;
82990;SDS011;72806;50.832;4.864;2024-03-23T13:56:19;2.80;;;1.48;;
82990;SDS011;72806;50.832;4.864;2024-03-23T13:58:46;3.92;;;2.13;;
82990;SDS011;72806;50.832;4.864;2024-03-23T14:01:15;5.68;;;1.83;;
82990;SDS011;72806;50.832;4.864;2024-03-23T14:03:42;5.80;;;2.50;;
82990;SDS011;72806;50.832;4.864;2024-03-23T14:06:09;2.58;;;2.00;;
82990;SDS011;72806;50.832;4.864;2024-03-23T14:08:37;2.75;;;1.80;;
82990;SDS011;72806;50.832;4.864;2024-03-23T14:11:04;3.10;;;1.73;;
82990;SDS011;72806;50.832;4.864;2024-03-23T14:13:31;5.20;;;1.50;;
82990;SDS011;72806;50.832;4.864;2024-03-23T14:15:58;3.00;;;2.47;;
82990;SDS011;72806;50.832;4.864;2024-03-23T14:18:27;4.60;;;2.30;;
82990;SDS011;72806;50.832;4.864;2024-03-23T14:20:56;3.97;;;1.98;;
82990;SDS011;72806;50.832;4.864;2024-03-23T14:23:24;7.45;;;2.35;;
82990;SDS011;72806;50.832;4.864;2024-03-23T14:25:52;4.30;;;1.73;;
82990;SDS011;72806;50.832;4.864;2024-03-23T14:28:20;2.92;;;1.60;;
82990;SDS011;72806;50.832;4.864;2024-03-23T14:30:47;4.20;;;2.15;;
82990;SDS011;72806;50.832;4.864;2024-03-23T14:33:14;4.75;;;1.60;;
82990;SDS011;72806;50.832;4.864;2024-03-23T14:35:42;5.03;;;2.17;;
82990;SDS011;72806;50.832;4.864;2024-03-23T14:38:09;9.73;;;4.07;;
82990;SDS011;72806;50.832;4.864;2024-03-23T14:40:35;5.65;;;1.88;;
82990;SDS011;72806;50.832;4.864;2024-03-23T14:43:02;4.75;;;2.42;;
82990;SDS011;72806;50.832;4.864;2024-03-23T14:45:29;4.10;;;1.90;;
82990;SDS011;72806;50.832;4.864;2024-03-23T14:47:56;4.40;;;1.80;;
82990;SDS011;72806;50.832;4.864;2024-03-23T14:50:24;5.50;;;2.20;;
82990;SDS011;72806;50.832;4.864;2024-03-23T14:52:52;4.07;;;1.92;;
82990;SDS011;72806;50.832;4.864;2024-03-23T14:55:18;8.25;;;2.95;;
82990;SDS011;72806;50.832;4.864;2024-03-23T14:57:46;4.65;;;2.10;;
82990;SDS011;72806;50.832;4.864;2024-03-23T15:00:12;7.28;;;2.33;;
82990;SDS011;72806;50.832;4.864;2024-03-23T15:02:40;6.07;;;2.50;;
82990;SDS011;72806;50.832;4.864;2024-03-23T15:05:06;4.75;;;2.33;;
82990;SDS011;72806;50.832;4.864;2024-03-23T15:07:35;6.00;;;2.67;;
82990;SDS011;72806;50.832;4.864;2024-03-23T15:10:02;4.40;;;1.90;;
82990;SDS011;72806;50.832;4.864;2024-03-23T15:12:30;2.95;;;2.17;;
82990;SDS011;72806;50.832;4.864;2024-03-23T15:14:58;3.80;;;2.30;;
82990;SDS011;72806;50.832;4.864;2024-03-23T15:17:25;4.88;;;2.75;;
82990;SDS011;72806;50.832;4.864;2024-03-23T15:19:52;7.25;;;2.28;;
82990;SDS011;72806;50.832;4.864;2024-03-23T15:22:19;4.07;;;1.83;;
82990;SDS011;72806;50.832;4.864;2024-03-23T15:24:46;7.45;;;2.78;;
82990;SDS011;72806;50.832;4.864;2024-03-23T15:27:15;3.80;;;2.05;;
82990;SDS011;72806;50.832;4.864;2024-03-23T15:29:41;2.25;;;1.60;;
82990;SDS011;72806;50.832;4.864;2024-03-23T15:32:10;7.60;;;1.98;;
82990;SDS011;72806;50.832;4.864;2024-03-23T15:34:39;2.50;;;1.83;;
82990;SDS011;72806;50.832;4.864;2024-03-23T15:37:06;7.22;;;1.90;;
82990;SDS011;72806;50.832;4.864;2024-03-23T15:39:32;3.38;;;2.10;;